Time;durP1;ratioP1;P1;durP2;ratioP2;P2;SDS_P1;SDS_P2;PMS_P1;PMS_P2;Temp;Humidity;BMP_temperature;BMP_pressure;BME280_temperature;BME280_humidity;BME280_pressure;Samples;Min_cycle;Max_cycle;Signal;HPM_P1;HPM_P2
2020/12/07 00:01:42;;;;;;;;;20.40;18.40;;;;;9.20;50.79;98035.00;6165589;28;98258;-61
2020/12/07 00:04:43;;;;;;;;;23.20;19.00;;;;;9.20;50.61;98035.84;6166084;28;96385;-61
2020/12/07 00:07:45;;;;;;;;;22.00;21.00;;;;;9.22;50.60;98035.59;6166129;28;97096;-61
2020/12/07 00:10:46;;;;;;;;;17.00;15.00;;;;;9.26;50.33;98017.94;6163897;28;97535;-61
2020/12/07 00:13:48;;;;;;;;;22.00;18.50;;;;;9.23;50.43;98021.94;6165563;28;97249;-61
2020/12/07 00:16:49;;;;;;;;;20.60;17.00;;;;;9.05;50.94;98025.53;6158509;28;97578;-61
2020/12/07 00:19:51;;;;;;;;;17.00;16.00;;;;;9.02;51.17;98014.44;6141491;28;96541;-61
2020/12/07 00:22:52;;;;;;;;;17.40;16.40;;;;;9.04;51.29;98001.59;6141382;28;97443;-61
2020/12/07 00:25:54;;;;;;;;;18.20;17.00;;;;;9.04;51.20;98002.38;6141577;28;96416;-61
2020/12/07 00:28:58;;;;;;;;;19.00;17.00;;;;;8.97;51.28;98011.63;6141266;28;98733;-61
2020/12/07 00:31:59;;;;;;;;;16.20;15.20;;;;;8.82;51.65;98003.19;6140664;28;96786;-61
2020/12/07 00:35:01;;;;;;;;;16.00;14.00;;;;;8.84;51.30;98011.84;6141143;28;98450;-61
2020/12/07 00:38:03;;;;;;;;;16.00;14.75;;;;;8.45;51.56;97956.88;6141221;28;96422;-61
2020/12/07 00:41:04;;;;;;;;;16.00;15.60;;;;;8.53;51.96;97981.53;6139770;28;98067;-61
2020/12/07 00:44:05;;;;;;;;;16.50;15.50;;;;;8.78;51.54;97991.28;6139672;28;97092;-61
2020/12/07 00:47:08;;;;;;;;;18.50;17.00;;;;;8.80;51.55;97994.53;6140688;28;98328;-61
2020/12/07 00:50:09;;;;;;;;;16.60;15.80;;;;;8.75;51.73;97999.81;6160822;28;97466;-61
2020/12/07 00:53:11;;;;;;;;;17.40;17.00;;;;;8.62;51.90;97980.16;6144182;28;96831;-61
2020/12/07 00:56:13;;;;;;;;;16.40;15.40;;;;;8.64;51.61;97967.31;6140370;28;98539;-61
2020/12/07 00:59:16;;;;;;;;;17.00;15.00;;;;;8.80;51.46;97983.78;6140400;28;97518;-61
2020/12/07 01:02:17;;;;;;;;;15.40;14.60;;;;;8.79;51.31;97988.38;6155236;28;97320;-61
2020/12/07 01:05:18;;;;;;;;;14.00;14.00;;;;;8.80;51.15;97984.59;6139311;28;98335;-61
2020/12/07 01:08:21;;;;;;;;;14.60;13.60;;;;;8.86;51.15;97969.41;6138518;28;96685;-60
2020/12/07 01:11:23;;;;;;;;;14.40;14.00;;;;;8.61;51.47;97940.06;6145682;28;96780;-61
2020/12/07 01:14:26;;;;;;;;;17.00;15.00;;;;;8.72;51.19;97971.50;6163950;28;96959;-61
2020/12/07 01:17:30;;;;;;;;;18.00;16.40;;;;;8.73;51.11;97961.59;6162636;28;96645;-61
2020/12/07 01:20:38;;;;;;;;;16.60;16.00;;;;;8.74;51.25;97968.59;6164646;28;96569;-61
2020/12/07 01:23:40;;;;;;;;;19.00;17.00;;;;;8.50;51.42;97916.72;6155038;28;98627;-61
2020/12/07 01:26:43;;;;;;;;;17.00;15.00;;;;;8.68;51.33;97941.63;6154938;28;97085;-61
2020/12/07 01:29:46;;;;;;;;;15.80;15.80;;;;;8.81;51.11;97951.31;6138726;28;97445;-61
2020/12/07 01:32:48;;;;;;;;;16.00;15.60;;;;;8.64;51.63;97940.44;6138563;28;97187;-61
2020/12/07 01:35:50;;;;;;;;;13.60;13.00;;;;;8.71;51.53;97940.31;6154838;28;98566;-61
2020/12/07 01:38:52;;;;;;;;;17.25;14.25;;;;;8.59;51.51;97926.06;6163032;28;97418;-61
2020/12/07 01:41:53;;;;;;;;;17.00;14.50;;;;;8.41;52.03;97902.78;6163622;28;97896;-61
2020/12/07 01:44:55;;;;;;;;;14.00;13.00;;;;;8.78;51.08;97937.53;6163253;28;97310;-61
2020/12/07 01:47:57;;;;;;;;;16.00;14.00;;;;;8.81;51.05;97956.69;6156931;28;96898;-61
2020/12/07 01:51:00;;;;;;;;;15.00;13.00;;;;;8.78;51.19;97954.47;6137194;28;96670;-61
2020/12/07 01:54:02;;;;;;;;;16.60;13.60;;;;;8.77;51.33;97949.31;6153602;28;97302;-61
2020/12/07 01:57:04;;;;;;;;;14.00;12.00;;;;;8.91;51.08;97938.09;6157976;28;97407;-61
2020/12/07 02:00:06;;;;;;;;;13.00;12.60;;;;;8.99;51.03;97937.75;6155820;28;98437;-61
2020/12/07 02:03:21;;;;;;;;;16.40;14.00;;;;;9.00;50.82;97928.63;6137592;28;98813;-61
2020/12/07 02:06:23;;;;;;;;;13.00;11.00;;;;;8.97;50.84;97933.66;6152432;28;97469;-61
2020/12/07 02:09:28;;;;;;;;;15.50;13.00;;;;;9.04;50.61;97945.13;6135970;28;97413;-61
2020/12/07 02:12:31;;;;;;;;;16.00;13.00;;;;;9.04;50.53;97937.06;6152203;28;96698;-61
2020/12/07 02:15:33;;;;;;;;;14.20;12.40;;;;;9.18;50.24;97940.31;6150529;28;97142;-60
2020/12/07 02:18:35;;;;;;;;;14.00;13.25;;;;;9.26;50.01;97946.16;6161457;28;97061;-61
2020/12/07 02:21:37;;;;;;;;;12.40;12.00;;;;;9.34;49.82;97950.34;6160497;28;96747;-60
2020/12/07 02:24:57;;;;;;;;;15.00;13.00;;;;;9.26;49.74;97948.03;6152536;28;97255;-61
2020/12/07 02:28:04;;;;;;;;;13.00;12.67;;;;;9.26;49.68;97946.16;6135111;28;96773;-60
2020/12/07 02:31:06;;;;;;;;;15.00;14.00;;;;;9.29;49.75;97940.28;6144597;28;97631;-61
2020/12/07 02:34:10;;;;;;;;;11.20;11.00;;;;;9.20;50.06;97940.88;6159093;28;97195;-61
2020/12/07 02:37:15;;;;;;;;;16.00;13.00;;;;;9.27;49.80;97936.22;6159660;28;99218;-61
2020/12/07 02:40:19;;;;;;;;;12.00;12.00;;;;;9.34;49.66;97935.03;6159192;28;96509;-61
2020/12/07 02:43:21;;;;;;;;;14.60;12.40;;;;;8.99;50.17;97913.56;6175358;28;97192;-61
2020/12/07 02:46:22;;;;;;;;;13.00;11.25;;;;;9.13;50.15;97914.16;6143869;28;96665;-61
2020/12/07 02:49:25;;;;;;;;;14.40;13.40;;;;;9.22;49.83;97923.47;6137574;28;97593;-61
2020/12/07 02:52:30;;;;;;;;;14.00;12.00;;;;;9.05;50.17;97909.94;6135981;28;98656;-61
2020/12/07 02:55:32;;;;;;;;;13.00;13.00;;;;;9.03;50.33;97905.84;6159176;28;97355;-61
2020/12/07 02:58:34;;;;;;;;;16.00;13.60;;;;;9.04;50.01;97908.28;6175189;28;97371;-61
2020/12/07 03:01:36;;;;;;;;;14.00;13.00;;;;;8.94;50.43;97910.75;6171483;28;99000;-61
2020/12/07 03:04:37;;;;;;;;;13.00;12.00;;;;;8.57;51.42;97906.66;6151488;28;96681;-60
2020/12/07 03:07:39;;;;;;;;;13.00;12.00;;;;;8.63;51.00;97900.38;6149241;28;97491;-61
2020/12/07 03:10:41;;;;;;;;;12.00;12.00;;;;;8.64;51.00;97904.69;6147830;28;97266;-61
2020/12/07 03:13:43;;;;;;;;;13.40;11.60;;;;;8.61;51.27;97897.09;6134461;28;96492;-61
2020/12/07 03:16:44;;;;;;;;;14.80;13.00;;;;;8.67;50.98;97888.91;6136716;28;96819;-61
2020/12/07 03:19:46;;;;;;;;;13.00;12.00;;;;;8.77;50.97;97896.41;6154756;28;96512;-61
2020/12/07 03:22:48;;;;;;;;;14.20;12.80;;;;;8.79;50.85;97893.50;6138580;28;97198;-61
2020/12/07 03:25:50;;;;;;;;;11.40;10.00;;;;;8.83;50.51;97897.34;6138286;28;97560;-60
2020/12/07 03:28:54;;;;;;;;;14.00;11.00;;;;;8.84;50.80;97890.91;6154200;28;97499;-61
2020/12/07 03:31:56;;;;;;;;;12.00;11.40;;;;;8.89;50.66;97902.59;6168994;28;97024;-61
2020/12/07 03:34:58;;;;;;;;;12.60;11.00;;;;;8.89;50.47;97891.84;6162222;28;97501;-61
2020/12/07 03:38:00;;;;;;;;;12.00;10.00;;;;;8.89;50.61;97889.16;6161366;28;96705;-61
2020/12/07 03:41:02;;;;;;;;;11.00;10.60;;;;;8.93;50.52;97889.50;6137719;28;98519;-60
2020/12/07 03:44:09;;;;;;;;;13.40;11.00;;;;;9.00;50.47;97895.56;6137825;28;97481;-61
2020/12/07 03:47:14;;;;;;;;;15.00;14.00;;;;;9.07;50.24;97886.31;6152596;28;96507;-60
2020/12/07 03:50:15;;;;;;;;;12.50;12.00;;;;;8.89;50.51;97869.53;6156899;28;96604;-61
2020/12/07 03:53:20;;;;;;;;;14.50;13.00;;;;;9.17;49.89;97901.03;6163293;28;97430;-60
2020/12/07 03:56:22;;;;;;;;;13.00;12.00;;;;;9.23;49.72;97900.09;6162390;28;98798;-61
2020/12/07 03:59:24;;;;;;;;;14.00;13.00;;;;;9.22;49.82;97898.47;6137872;28;97429;-61
2020/12/07 04:02:27;;;;;;;;;12.00;10.60;;;;;9.28;49.52;97884.06;6138032;28;97500;-61
2020/12/07 04:05:35;;;;;;;;;12.00;11.60;;;;;9.34;49.41;97888.47;6137464;28;96597;-60
2020/12/07 04:08:36;;;;;;;;;11.00;10.50;;;;;9.34;49.04;97893.84;6153281;28;96508;-61
2020/12/07 04:11:38;;;;;;;;;12.25;12.00;;;;;9.37;49.31;97888.03;6138508;28;98568;-61
2020/12/07 04:14:39;;;;;;;;;14.00;13.00;;;;;9.36;49.25;97897.13;6138713;28;97231;-60
2020/12/07 04:17:41;;;;;;;;;12.25;11.75;;;;;9.29;49.60;97899.94;6138566;28;98427;-60
2020/12/07 04:20:42;;;;;;;;;13.00;12.00;;;;;9.31;49.45;97897.03;6139267;28;97689;-61
2020/12/07 04:23:43;;;;;;;;;11.00;10.60;;;;;9.31;49.50;97905.09;6138369;28;97503;-61
2020/12/07 04:26:45;;;;;;;;;13.00;11.50;;;;;9.31;49.49;97902.41;6156660;28;96526;-61
2020/12/07 04:29:46;;;;;;;;;12.00;12.00;;;;;9.22;49.42;97885.84;6161127;28;96510;-61
2020/12/07 04:32:48;;;;;;;;;12.00;11.20;;;;;9.28;49.84;97897.53;6162838;28;98180;-60
2020/12/07 04:35:49;;;;;;;;;11.00;10.00;;;;;9.16;49.82;97904.78;6161945;28;97030;-61
2020/12/07 04:38:51;;;;;;;;;10.75;9.00;;;;;8.97;50.47;97888.78;6161835;28;96496;-61
2020/12/07 04:41:52;;;;;;;;;11.00;9.00;;;;;8.86;50.60;97894.16;6162441;28;97741;-61
2020/12/07 04:44:54;;;;;;;;;11.60;11.00;;;;;8.89;50.81;97899.91;6160751;28;97121;-61
2020/12/07 04:47:59;;;;;;;;;11.00;10.00;;;;;8.89;50.85;97899.91;6161438;28;96857;-61
2020/12/07 04:51:01;;;;;;;;;13.00;10.00;;;;;8.85;50.99;97903.28;6142940;28;97648;-61
2020/12/07 04:54:03;;;;;;;;;11.00;10.00;;;;;8.97;50.85;97901.41;6138002;28;98549;-60
2020/12/07 04:57:05;;;;;;;;;13.20;12.80;;;;;9.01;50.46;97897.19;6137694;28;97430;-60
2020/12/07 05:00:06;;;;;;;;;11.40;10.40;;;;;9.07;50.46;97890.88;6137794;28;96621;-60
2020/12/07 05:03:08;;;;;;;;;11.40;10.40;;;;;9.18;50.25;97876.59;6137348;28;96691;-60
2020/12/07 05:06:13;;;;;;;;;12.60;11.00;;;;;9.20;49.76;97885.25;6137391;28;98713;-61
2020/12/07 05:09:15;;;;;;;;;10.67;10.00;;;;;9.02;49.71;97859.34;6136253;28;96993;-61
2020/12/07 05:12:20;;;;;;;;;9.50;9.00;;;;;9.37;49.51;97888.03;6137199;28;98608;-60
2020/12/07 05:15:23;;;;;;;;;13.00;11.40;;;;;9.26;49.43;97862.78;6142528;28;96686;-61
2020/12/07 05:18:24;;;;;;;;;11.00;10.00;;;;;9.53;49.24;97884.56;6148170;28;96607;-60
2020/12/07 05:21:25;;;;;;;;;13.60;12.60;;;;;9.57;49.16;97881.19;6137435;28;97621;-61
2020/12/07 05:24:27;;;;;;;;;10.00;9.40;;;;;9.55;48.75;97877.06;6137560;28;96852;-61
2020/12/07 05:27:31;;;;;;;;;11.00;10.00;;;;;9.57;49.02;97885.75;6138387;28;97180;-61
2020/12/07 05:30:40;;;;;;;;;12.00;11.00;;;;;9.58;48.81;97879.28;6136667;28;97961;-60
2020/12/07 05:33:42;;;;;;;;;11.00;11.00;;;;;9.63;48.56;97882.06;6137612;28;97176;-60
2020/12/07 05:36:53;;;;;;;;;13.75;12.00;;;;;9.41;48.49;97838.06;6142983;28;98735;-61
2020/12/07 05:39:54;;;;;;;;;11.00;10.00;;;;;9.62;48.54;97872.38;6155226;28;97591;-60
2020/12/07 05:42:57;;;;;;;;;14.00;13.00;;;;;9.61;48.66;97884.19;6160964;28;97416;-61
2020/12/07 05:46:01;;;;;;;;;14.00;12.00;;;;;9.66;47.71;97886.97;6160174;28;97807;-61
2020/12/07 05:49:02;;;;;;;;;14.40;13.40;;;;;9.64;48.10;97888.25;6160870;28;98623;-60
2020/12/07 05:52:07;;;;;;;;;16.00;15.00;;;;;9.52;48.22;97877.56;6149862;28;96938;-61
2020/12/07 05:55:10;;;;;;;;;13.00;13.00;;;;;9.48;48.08;97877.19;6160003;28;97529;-61
2020/12/07 05:58:12;;;;;;;;;12.60;11.60;;;;;9.26;48.57;97888.84;6160859;28;97365;-61
2020/12/07 06:01:16;;;;;;;;;16.40;13.40;;;;;9.16;49.65;97884.09;6160584;28;96535;-61
2020/12/07 06:04:19;;;;;;;;;12.80;12.80;;;;;8.62;49.58;97835.06;6159780;28;98616;-60
2020/12/07 06:07:27;;;;;;;;;14.00;12.00;;;;;8.91;49.48;97891.59;6160822;28;98064;-61
2020/12/07 06:10:33;;;;;;;;;13.40;13.00;;;;;8.68;49.59;97863.69;6160452;28;96976;-60
2020/12/07 06:13:35;;;;;;;;;12.40;12.00;;;;;8.94;49.46;97889.25;6143107;28;96741;-60
2020/12/07 06:16:36;;;;;;;;;12.20;12.00;;;;;8.94;49.94;97891.16;6148043;28;96448;-60
2020/12/07 06:19:39;;;;;;;;;14.00;13.40;;;;;8.85;50.07;97896.03;6136249;28;96796;-61
2020/12/07 06:22:40;;;;;;;;;14.60;12.60;;;;;8.55;50.31;97869.28;6136129;28;97390;-61
2020/12/07 06:25:44;;;;;;;;;14.00;13.00;;;;;8.76;50.24;97905.50;6136300;28;97493;-60
2020/12/07 06:28:48;;;;;;;;;13.60;11.60;;;;;8.68;50.03;97887.06;6145423;28;97243;-60
2020/12/07 06:31:49;;;;;;;;;15.00;14.00;;;;;8.53;50.61;97895.56;6138857;28;98407;-61
2020/12/07 06:34:57;;;;;;;;;13.00;12.00;;;;;8.55;50.79;97904.22;6153799;28;97604;-60
2020/12/07 06:38:02;;;;;;;;;12.20;11.60;;;;;8.53;50.73;97919.75;6137635;28;96893;-61
2020/12/07 06:41:03;;;;;;;;;10.80;10.00;;;;;8.61;50.71;97919.41;6134379;28;96662;-61
2020/12/07 06:44:11;;;;;;;;;14.60;13.00;;;;;8.59;50.83;97915.31;6156480;28;97464;-60
2020/12/07 06:47:19;;;;;;;;;14.00;13.00;;;;;8.60;50.30;97920.44;6150347;28;96935;-60
2020/12/07 06:50:25;;;;;;;;;17.00;15.00;;;;;8.53;50.76;97910.88;6157161;28;97240;-61
2020/12/07 06:56:33;;;;;;;;;13.50;12.50;;;;;8.74;50.17;97921.06;6158836;28;96603;-61
2020/12/07 06:59:34;;;;;;;;;15.00;13.00;;;;;8.78;50.53;97932.16;6149316;28;96683;-59
2020/12/07 07:02:38;;;;;;;;;15.20;13.40;;;;;8.75;50.65;97941.47;6154303;28;98764;-60
2020/12/07 07:05:39;;;;;;;;;13.00;12.50;;;;;8.53;49.92;97922.44;6151675;28;97391;-61
2020/12/07 07:08:42;;;;;;;;;17.40;16.00;;;;;8.73;50.31;97923.97;6151704;28;97078;-61
2020/12/07 07:11:44;;;;;;;;;16.40;14.60;;;;;8.41;49.82;97893.91;6156600;28;96555;-62
2020/12/07 07:14:48;;;;;;;;;16.00;15.00;;;;;8.53;50.48;97943.94;6173816;28;97438;-61
2020/12/07 07:17:49;;;;;;;;;15.40;13.60;;;;;8.19;50.80;97923.97;6187897;28;96606;-60
2020/12/07 07:20:51;;;;;;;;;14.00;13.60;;;;;8.36;50.80;97934.91;6189194;28;97541;-59
2020/12/07 07:23:54;;;;;;;;;16.00;15.50;;;;;8.50;50.99;97935.53;6188739;28;96594;-57
2020/12/07 07:27:04;;;;;;;;;14.00;13.40;;;;;8.77;50.53;97939.41;6187407;28;96546;-59
2020/12/07 07:30:06;;;;;;;;;16.00;14.40;;;;;8.79;49.90;97941.84;6164814;28;97370;-59
2020/12/07 07:33:07;;;;;;;;;14.25;13.25;;;;;8.65;49.67;97909.81;6162718;28;98475;-58
2020/12/07 07:36:21;;;;;;;;;15.50;14.00;;;;;9.02;49.57;97947.22;6163046;28;97598;-60
2020/12/07 07:39:22;;;;;;;;;14.20;14.00;;;;;9.00;49.23;97930.50;6157363;28;97946;-59
2020/12/07 07:42:24;;;;;;;;;17.40;15.00;;;;;9.18;49.22;97964.53;6160931;28;96555;-59
2020/12/07 07:45:33;;;;;;;;;16.80;15.00;;;;;9.10;49.42;97934.25;6154695;28;96640;-58
2020/12/07 07:53:05;;;;;;;;;17.00;16.00;;;;;9.58;48.90;97978.84;6162884;28;97595;-59
2020/12/07 08:15:43;;;;;;;;;19.00;17.40;;;;;10.55;45.93;98000.41;6158304;28;99278;-59
2020/12/07 08:18:45;;;;;;;;;18.20;16.20;;;;;10.49;48.34;97977.94;6162208;28;97541;-57
2020/12/07 08:21:46;;;;;;;;;17.40;15.40;;;;;10.79;45.70;97999.22;6161268;28;96697;-58
2020/12/07 08:24:58;;;;;;;;;16.80;14.80;;;;;10.91;45.12;98002.63;6161423;28;96991;-58
2020/12/07 08:27:59;;;;;;;;;16.00;15.40;;;;;10.97;45.43;98000.84;6162343;28;97302;-59
2020/12/07 08:31:12;;;;;;;;;14.80;14.20;;;;;11.07;45.43;98003.69;6159821;28;98653;-58
2020/12/07 08:34:14;;;;;;;;;15.20;15.00;;;;;11.12;44.69;98006.47;6160121;28;97492;-57
2020/12/07 08:37:17;;;;;;;;;17.60;15.00;;;;;11.25;44.07;98006.13;6157558;28;97259;-58
2020/12/07 08:40:19;;;;;;;;;16.50;15.50;;;;;11.36;44.12;98013.31;6154017;28;96683;-58
2020/12/07 08:43:20;;;;;;;;;17.50;16.50;;;;;11.40;43.88;97990.16;6156560;28;97486;-58
2020/12/07 08:46:25;;;;;;;;;18.00;16.75;;;;;11.54;43.81;98009.50;6161385;28;97556;-58
2020/12/07 08:49:27;;;;;;;;;17.00;15.00;;;;;11.58;43.37;97995.25;6161280;28;96832;-58
2020/12/07 08:52:29;;;;;;;;;17.60;16.60;;;;;11.77;43.94;98000.41;6160629;28;98529;-58
2020/12/07 08:55:32;;;;;;;;;17.00;15.75;;;;;11.90;43.51;98005.41;6166081;28;97535;-58
2020/12/07 08:58:34;;;;;;;;;16.00;14.75;;;;;12.08;43.75;97999.69;6160663;28;96807;-58
2020/12/07 09:01:35;;;;;;;;;15.00;15.00;;;;;12.15;42.13;97989.50;6156558;28;96722;-58
2020/12/07 09:04:36;;;;;;;;;14.60;13.60;;;;;12.21;41.80;97991.22;6154481;28;96876;-59
2020/12/07 09:07:38;;;;;;;;;17.60;17.00;;;;;11.92;42.35;97995.19;6180818;28;97088;-59
2020/12/07 09:10:39;;;;;;;;;16.00;14.60;;;;;11.98;42.54;97991.47;6185028;28;97531;-58
2020/12/07 09:13:42;;;;;;;;;23.25;21.25;;;;;12.03;43.18;97988.81;6184958;28;96636;-58
2020/12/07 09:16:43;;;;;;;;;16.00;14.20;;;;;12.10;42.91;97989.47;6185054;28;97419;-59
2020/12/07 09:19:44;;;;;;;;;18.50;17.50;;;;;12.13;42.24;97987.06;6163925;28;96539;-57
2020/12/07 09:22:46;;;;;;;;;18.00;16.00;;;;;12.09;42.77;97988.63;6159939;28;97550;-58
2020/12/07 09:25:48;;;;;;;;;19.00;17.40;;;;;12.12;42.30;97973.78;6151627;28;97173;-58
2020/12/07 09:28:49;;;;;;;;;21.50;19.50;;;;;12.20;42.12;97972.53;6159671;28;97977;-58
2020/12/07 09:31:51;;;;;;;;;19.20;18.00;;;;;12.49;41.86;97982.03;6181282;28;97201;-59
2020/12/07 09:34:52;;;;;;;;;18.00;15.00;;;;;12.72;41.52;97983.56;6184771;28;98170;-59
2020/12/07 09:37:54;;;;;;;;;19.20;19.00;;;;;12.96;41.10;97996.50;6184572;28;97001;-58
2020/12/07 09:40:55;;;;;;;;;16.50;15.50;;;;;13.04;41.35;97997.94;6184886;28;96542;-58
2020/12/07 09:43:56;;;;;;;;;15.80;14.80;;;;;13.05;40.55;97961.66;6184475;28;98485;-57
2020/12/07 09:46:58;;;;;;;;;18.00;17.00;;;;;13.22;40.48;97992.13;6159406;28;97089;-57
2020/12/07 09:49:59;;;;;;;;;18.67;17.67;;;;;13.36;40.30;97981.66;6141824;28;97162;-57
2020/12/07 09:53:02;;;;;;;;;17.00;16.60;;;;;13.49;39.88;97996.66;6150340;28;96809;-58
2020/12/07 09:56:03;;;;;;;;;18.00;16.20;;;;;13.78;39.53;97987.06;6152315;28;97559;-57
2020/12/07 09:59:04;;;;;;;;;18.00;16.60;;;;;13.94;39.15;97991.44;6156416;28;97246;-58
2020/12/07 10:02:06;;;;;;;;;17.00;16.20;;;;;14.24;39.21;97993.44;6146423;28;97663;-57
2020/12/07 10:05:07;;;;;;;;;17.00;16.00;;;;;14.66;38.50;97990.59;6149003;28;97266;-57
2020/12/07 10:08:11;;;;;;;;;17.50;17.25;;;;;15.15;37.23;97978.09;6148194;28;98012;-58
2020/12/07 10:11:13;;;;;;;;;19.80;17.20;;;;;15.50;36.70;97984.53;6147249;28;97884;-57
2020/12/07 10:14:15;;;;;;;;;18.00;16.00;;;;;15.81;36.62;97985.31;6146372;28;97579;-57
2020/12/07 10:17:17;;;;;;;;;19.60;18.00;;;;;16.00;36.44;97980.88;6141942;28;98310;-58
2020/12/07 10:20:18;;;;;;;;;18.00;17.67;;;;;16.18;35.46;97977.53;6142697;28;97089;-57
2020/12/07 10:23:19;;;;;;;;;19.40;18.00;;;;;16.23;35.35;97946.78;6144528;28;96943;-58
2020/12/07 10:26:24;;;;;;;;;17.60;17.40;;;;;16.43;35.45;97974.69;6151720;28;97114;-58
2020/12/07 10:29:26;;;;;;;;;20.25;19.25;;;;;16.48;35.44;97974.66;6172899;28;96624;-58
2020/12/07 10:32:27;;;;;;;;;18.00;17.00;;;;;16.59;33.89;97989.03;6141871;28;97392;-58
2020/12/07 10:35:29;;;;;;;;;20.00;16.00;;;;;16.78;34.24;97984.53;6147169;28;97266;-58
2020/12/07 10:38:37;;;;;;;;;19.00;18.00;;;;;16.72;34.24;97993.84;6159266;28;97053;-59
2020/12/07 10:41:38;;;;;;;;;17.00;16.00;;;;;16.63;34.67;97990.09;6155539;28;96972;-59
2020/12/07 10:44:40;;;;;;;;;17.80;16.20;;;;;16.67;34.74;97995.78;6143098;28;97460;-58
2020/12/07 10:47:41;;;;;;;;;18.60;17.60;;;;;16.69;34.08;97980.81;6145431;28;97173;-58
2020/12/07 10:50:42;;;;;;;;;18.67;17.00;;;;;16.75;34.46;97987.84;6150648;28;97448;-57
2020/12/07 10:53:45;;;;;;;;;17.00;15.25;;;;;16.86;34.20;97992.09;6149339;28;98546;-57
2020/12/07 10:56:46;;;;;;;;;17.00;17.00;;;;;16.94;34.24;97985.25;6149500;28;97468;-58
2020/12/07 10:59:47;;;;;;;;;19.60;17.60;;;;;17.09;34.11;97979.69;6157599;28;98067;-58
2020/12/07 11:02:49;;;;;;;;;18.00;17.40;;;;;17.06;34.06;97963.06;6156086;28;97365;-58
2020/12/07 11:05:50;;;;;;;;;19.20;15.80;;;;;17.17;34.07;97989.94;6155299;28;98794;-58
2020/12/07 11:08:56;;;;;;;;;17.60;16.60;;;;;17.08;33.92;97994.38;6150117;28;98702;-58
2020/12/07 11:12:03;;;;;;;;;18.40;16.60;;;;;16.91;34.77;97998.63;6141218;28;97258;-59
2020/12/07 11:15:04;;;;;;;;;17.60;16.00;;;;;16.85;34.58;97986.94;6150414;28;98670;-57
2020/12/07 11:18:06;;;;;;;;;19.00;18.75;;;;;16.84;34.67;97980.69;6157393;28;97095;-58
2020/12/07 11:21:14;;;;;;;;;16.40;15.00;;;;;17.05;35.23;97992.25;6148954;28;96734;-57
2020/12/07 11:24:16;;;;;;;;;19.00;17.00;;;;;17.23;34.50;97985.25;6149643;28;96982;-59
2020/12/07 11:27:18;;;;;;;;;18.00;16.00;;;;;17.30;34.13;97983.00;6149670;28;97532;-58
2020/12/07 11:30:19;;;;;;;;;20.80;19.00;;;;;17.11;33.92;97963.84;6158151;28;97638;-58
2020/12/07 11:33:20;;;;;;;;;17.00;16.00;;;;;17.23;34.38;97988.00;6158491;28;98470;-59
2020/12/07 11:36:29;;;;;;;;;21.00;20.75;;;;;17.05;34.36;97992.25;6148091;28;98035;-58
2020/12/07 11:45:43;;;;;;;;;19.20;17.60;;;;;16.63;35.72;97983.81;6148915;28;98028;-58
2020/12/07 11:48:45;;;;;;;;;17.75;16.75;;;;;16.50;36.00;97974.38;6160565;28;98515;-58
2020/12/07 11:51:47;;;;;;;;;18.75;18.00;;;;;16.56;35.69;97975.97;6151870;28;97499;-58
2020/12/07 11:54:48;;;;;;;;;21.00;19.00;;;;;16.45;35.97;97971.69;6143231;28;96639;-59
2020/12/07 11:57:50;;;;;;;;;16.00;15.25;;;;;16.31;36.43;97954.38;6168528;28;97067;-60
2020/12/07 12:00:51;;;;;;;;;17.00;15.40;;;;;16.12;35.96;97964.25;6150623;28;98011;-59
2020/12/07 12:04:04;;;;;;;;;19.00;16.80;;;;;15.97;36.29;97967.88;6149429;28;96958;-58
2020/12/07 12:07:06;;;;;;;;;17.67;16.00;;;;;15.67;36.20;97967.97;6151755;28;98660;-57
2020/12/07 12:10:08;;;;;;;;;16.80;14.80;;;;;15.47;37.52;97969.63;6155571;28;97613;-59
2020/12/07 12:13:09;;;;;;;;;18.40;18.00;;;;;15.41;37.57;97964.47;6159639;28;96673;-58
2020/12/07 12:16:13;;;;;;;;;20.75;18.25;;;;;15.26;37.62;97959.88;6149612;28;96629;-59
2020/12/07 12:19:21;;;;;;;;;23.60;22.60;;;;;15.15;37.69;97953.66;6161851;28;97380;-58
2020/12/07 12:22:23;;;;;;;;;25.60;23.60;;;;;15.04;37.85;97959.38;6152407;28;97507;-58
2020/12/07 12:25:25;;;;;;;;;23.80;22.20;;;;;14.99;38.24;97962.91;6155842;28;98723;-57
2020/12/07 12:28:27;;;;;;;;;22.00;21.00;;;;;14.83;38.91;97961.28;6153298;28;97128;-57
2020/12/07 12:31:30;;;;;;;;;21.00;20.00;;;;;14.82;39.37;97953.41;6159290;28;96647;-57
2020/12/07 12:34:31;;;;;;;;;22.00;19.75;;;;;14.42;38.93;97927.06;6183724;28;98707;-58
2020/12/07 12:37:33;;;;;;;;;20.00;19.40;;;;;14.53;39.06;97963.97;6162056;28;97282;-57
2020/12/07 12:40:34;;;;;;;;;21.25;20.25;;;;;14.38;39.41;97963.94;6156003;28;97535;-58
2020/12/07 12:43:36;;;;;;;;;24.25;22.25;;;;;14.33;39.74;97962.00;6150241;28;97510;-57
2020/12/07 12:46:38;;;;;;;;;24.25;22.00;;;;;14.23;39.68;97968.22;6140733;28;97566;-57
2020/12/07 12:49:44;;;;;;;;;24.25;22.25;;;;;14.30;39.34;97984.25;6154078;28;96971;-57
2020/12/07 12:52:45;;;;;;;;;22.50;19.50;;;;;14.25;39.69;97976.91;6162819;28;98036;-57
2020/12/07 12:55:47;;;;;;;;;24.40;21.00;;;;;14.21;40.03;97973.13;6159727;28;97441;-57
2020/12/07 12:58:48;;;;;;;;;23.60;22.00;;;;;14.05;39.67;97978.75;6141687;28;97590;-58
2020/12/07 13:01:50;;;;;;;;;23.00;22.00;;;;;13.91;40.87;97972.19;6151566;28;97238;-57
2020/12/07 13:04:51;;;;;;;;;22.80;21.80;;;;;13.84;39.91;97973.25;6155230;28;97536;-57
2020/12/07 13:07:53;;;;;;;;;21.60;20.00;;;;;13.81;40.54;97981.91;6144293;28;97626;-57
2020/12/07 13:10:54;;;;;;;;;22.00;21.00;;;;;13.86;40.04;97989.25;6152011;28;97396;-57
2020/12/07 13:13:56;;;;;;;;;20.75;19.50;;;;;13.53;40.44;97957.94;6153268;28;98125;-56
2020/12/07 13:17:03;;;;;;;;;21.00;21.00;;;;;13.71;40.64;97978.34;6159344;28;97540;-57
2020/12/07 13:20:07;;;;;;;;;23.00;21.00;;;;;13.73;40.20;97997.84;6152283;28;97379;-57
2020/12/07 13:29:24;;;;;;;;;19.80;18.40;;;;;13.56;40.86;98011.56;6160311;28;96515;-57
2020/12/07 13:32:27;;;;;;;;;21.00;19.40;;;;;13.52;40.95;98015.06;6152590;28;97105;-57
2020/12/07 13:35:28;;;;;;;;;23.00;21.00;;;;;13.48;41.40;98012.06;6147566;28;96729;-57
2020/12/07 13:38:30;;;;;;;;;20.00;19.00;;;;;13.42;40.77;98013.09;6147789;28;97724;-57
2020/12/07 13:41:31;;;;;;;;;22.00;22.00;;;;;13.33;41.07;98020.09;6141114;28;97355;-57
2020/12/07 13:44:33;;;;;;;;;23.00;21.00;;;;;13.06;41.62;97976.00;6157301;28;98570;-57
2020/12/07 13:47:34;;;;;;;;;24.50;22.00;;;;;13.25;41.07;98010.53;6158465;28;98449;-57
2020/12/07 13:50:35;;;;;;;;;22.00;21.00;;;;;13.16;41.49;98004.00;6152355;28;97515;-57
2020/12/07 13:53:37;;;;;;;;;23.40;21.60;;;;;13.14;41.01;98013.47;6148892;28;97495;-57
2020/12/07 13:56:42;;;;;;;;;22.00;20.80;;;;;13.07;41.57;98013.63;6171638;28;96609;-56
2020/12/07 13:59:43;;;;;;;;;29.20;24.80;;;;;12.95;42.07;98018.44;6156456;28;97626;-57
2020/12/07 14:02:45;;;;;;;;;24.60;21.60;;;;;12.90;42.62;98015.69;6157234;28;96514;-57
2020/12/07 14:05:46;;;;;;;;;21.60;20.00;;;;;12.81;42.02;97999.06;6154949;28;97602;-57
2020/12/07 14:08:47;;;;;;;;;22.20;21.00;;;;;12.73;41.71;97996.03;6145329;28;97164;-57
2020/12/07 14:11:50;;;;;;;;;24.00;21.00;;;;;12.70;42.58;97988.44;6141013;28;97387;-57
2020/12/07 14:14:52;;;;;;;;;24.00;23.00;;;;;12.45;42.25;97984.44;6152390;28;97504;-57
2020/12/07 14:18:16;;;;;;;;;24.00;22.00;;;;;12.33;42.14;97991.88;6157709;28;98103;-57
2020/12/07 14:21:24;;;;;;;;;21.00;19.00;;;;;12.14;42.22;98020.28;6159763;28;97050;-57
2020/12/07 14:40:44;;;;;;;;;25.60;22.00;;;;;12.00;43.11;98024.47;6139953;28;98550;-57
2020/12/07 14:43:45;;;;;;;;;25.40;21.40;;;;;12.02;42.99;98023.13;6153193;28;98553;-57
2020/12/07 14:46:48;;;;;;;;;22.40;21.00;;;;;11.66;43.40;98018.31;6142537;28;99136;-57
2020/12/07 14:49:55;;;;;;;;;23.60;22.00;;;;;11.77;43.95;98027.41;6146481;28;97484;-57
2020/12/07 14:52:59;;;;;;;;;22.40;21.00;;;;;11.73;43.40;98032.47;6144702;28;97482;-57
2020/12/07 15:05:38;;;;;;;;;24.00;22.00;;;;;11.67;43.35;98042.38;6150494;28;97159;-57
2020/12/07 15:15:10;;;;;;;;;24.00;23.00;;;;;11.61;45.41;98027.16;6145640;28;96552;-57
2020/12/07 15:18:12;;;;;;;;;26.00;24.00;;;;;11.43;44.84;98002.34;6162292;28;96976;-57